Time;durP1;ratioP1;P1;durP2;ratioP2;P2;SDS_P1;SDS_P2;PMS_P1;PMS_P2;Temp;Humidity;BMP_temperature;BMP_pressure;BME280_temperature;BME280_humidity;BME280_pressure;Samples;Min_cycle;Max_cycle;Signal;HPM_P1;HPM_P2
2023/04/07 00:01:49;;;;;;;8.50;7.80;;;;;;;3.83;40.45;94624.81;4990151;28;20278;-65
2023/04/07 00:04:15;;;;;;;10.17;8.03;;;;;;;3.80;40.00;94627.66;4989778;28;20239;-66
2023/04/07 00:06:42;;;;;;;10.00;8.37;;;;;;;3.80;39.96;94627.66;4989206;28;20230;-65
2023/04/07 00:09:08;;;;;;;10.43;8.53;;;;;;;3.73;39.87;94628.09;4991578;28;20231;-65
2023/04/07 00:11:34;;;;;;;10.07;8.23;;;;;;;3.57;40.38;94630.25;4986523;28;20302;-65
2023/04/07 00:13:59;;;;;;;8.97;8.07;;;;;;;3.67;40.66;94636.38;4990248;28;20313;-65
2023/04/07 00:16:25;;;;;;;8.43;7.63;;;;;;;3.67;39.91;94623.38;4990017;28;20231;-65
2023/04/07 00:18:50;;;;;;;9.10;8.20;;;;;;;3.62;39.75;94622.91;4989994;28;20301;-66
2023/04/07 00:21:15;;;;;;;8.83;8.03;;;;;;;3.54;39.74;94615.72;4989709;28;20230;-66
2023/04/07 00:23:41;;;;;;;8.67;7.87;;;;;;;3.58;40.26;94621.50;4990478;28;20218;-66
2023/04/07 00:26:07;;;;;;;8.93;8.07;;;;;;;3.63;39.98;94616.75;4991133;28;20291;-66
2023/04/07 00:28:32;;;;;;;10.00;8.13;;;;;;;3.66;39.79;94620.91;4989577;28;20227;-66
2023/04/07 00:30:58;;;;;;;8.77;7.80;;;;;;;3.68;39.80;94613.81;4991886;28;20303;-66
2023/04/07 00:33:23;;;;;;;9.33;7.80;;;;;;;3.65;39.90;94606.25;4989319;28;20227;-65
2023/04/07 00:35:48;;;;;;;9.87;8.07;;;;;;;3.73;39.94;94622.09;4990363;28;20203;-66
2023/04/07 00:38:14;;;;;;;9.10;8.00;;;;;;;3.69;39.87;94615.47;4989568;28;20270;-66
2023/04/07 00:40:39;;;;;;;8.47;7.67;;;;;;;3.77;39.70;94615.72;4989797;28;20232;-65
2023/04/07 00:43:05;;;;;;;8.67;7.87;;;;;;;3.69;39.55;94615.47;4988935;28;20365;-65
2023/04/07 00:45:30;;;;;;;9.40;8.40;;;;;;;3.79;39.62;94621.59;4990267;28;20219;-65
2023/04/07 00:47:57;;;;;;;9.73;7.90;;;;;;;3.80;38.88;94623.25;4990225;28;20238;-66
2023/04/07 00:50:23;;;;;;;9.33;8.10;;;;;;;3.75;39.77;94612.41;4974188;28;20271;-66
2023/04/07 00:52:49;;;;;;;8.77;7.87;;;;;;;3.77;39.44;94610.50;4989764;28;20358;-66
2023/04/07 00:55:15;;;;;;;8.97;8.07;;;;;;;3.76;39.44;94617.47;4990389;28;20600;-67
2023/04/07 00:57:40;;;;;;;8.57;7.47;;;;;;;3.81;39.56;94624.91;4992076;28;20231;-68
2023/04/07 01:00:07;;;;;;;8.67;7.77;;;;;;;3.81;39.63;94618.88;4989897;28;20231;-68
2023/04/07 01:02:53;;;;;;;8.70;7.40;;;;;;;3.81;39.32;94622.31;4989929;28;20179;-64
2023/04/07 01:05:54;;;;;;;9.27;8.40;;;;;;;3.68;39.70;94614.63;5002146;28;20227;-63
2023/04/07 01:08:25;;;;;;;9.43;7.80;;;;;;;3.71;39.46;94618.78;4916311;29;20264;-64
2023/04/07 01:10:53;;;;;;;9.17;8.17;;;;;;;3.60;39.85;94605.78;4913512;29;20221;-64
2023/04/07 01:13:29;;;;;;;7.87;7.17;;;;;;;3.53;39.94;94608.88;4916670;29;20226;-67
2023/04/07 01:15:59;;;;;;;10.43;7.57;;;;;;;3.47;40.28;94608.50;4928098;29;20233;-63
2023/04/07 01:18:33;;;;;;;9.60;7.93;;;;;;;3.60;39.89;94608.38;4917244;29;20256;-64
2023/04/07 01:21:06;;;;;;;8.97;7.70;;;;;;;3.62;39.55;94603.91;4915086;29;20225;-63
2023/04/07 01:24:10;;;;;;;8.60;7.80;;;;;;;3.60;39.45;94614.41;4897592;29;20798;-63
2023/04/07 01:26:37;;;;;;;8.33;7.53;;;;;;;3.72;39.70;94597.03;4839793;29;20231;-63
2023/04/07 01:29:27;;;;;;;8.27;7.47;;;;;;;3.68;39.47;94608.63;4840527;29;20224;-67
2023/04/07 01:31:55;;;;;;;8.43;7.50;;;;;;;3.64;39.53;94595.03;4859087;29;20237;-68
2023/04/07 01:34:24;;;;;;;7.87;7.00;;;;;;;3.79;38.90;94600.78;4860909;29;20244;-65
2023/04/07 01:36:51;;;;;;;7.77;7.00;;;;;;;3.64;39.08;94595.03;4867177;29;20262;-65
2023/04/07 01:39:17;;;;;;;8.63;7.73;;;;;;;3.78;39.22;94604.34;4877299;29;20231;-64
2023/04/07 01:41:44;;;;;;;8.17;7.47;;;;;;;3.62;39.65;94594.31;4879795;29;20230;-64
2023/04/07 01:44:10;;;;;;;7.97;7.27;;;;;;;3.81;38.58;94596.31;4879088;29;20261;-65
2023/04/07 01:46:35;;;;;;;8.83;7.33;;;;;;;3.77;38.76;94589.69;4936421;29;20236;-67
2023/04/07 01:49:03;;;;;;;7.67;6.97;;;;;;;3.72;38.41;94590.06;4933711;29;20225;-66
2023/04/07 01:51:29;;;;;;;8.47;7.67;;;;;;;3.80;38.76;94599.03;4922176;29;20314;-67
2023/04/07 01:53:56;;;;;;;15.27;13.67;;;;;;;3.84;43.27;94588.25;4936017;29;20186;-66
2023/04/07 01:56:21;;;;;;;17.57;14.53;;;;;;;3.66;44.72;94594.91;4920256;29;20303;-66
2023/04/07 01:58:47;;;;;;;15.90;14.30;;;;;;;3.61;45.80;94584.88;4933703;29;20308;-67
2023/04/07 02:01:13;;;;;;;16.47;14.77;;;;;;;3.58;46.71;94595.50;4916788;29;20279;-65
2023/04/07 02:04:04;;;;;;;16.90;15.07;;;;;;;3.59;47.33;94593.75;4968487;28;20282;-66
2023/04/07 02:06:37;;;;;;;17.70;15.07;;;;;;;3.46;47.72;94584.28;4991949;28;20293;-66
2023/04/07 02:09:06;;;;;;;17.63;15.90;;;;;;;3.27;48.58;94589.25;4991396;28;20290;-66
2023/04/07 02:11:34;;;;;;;16.33;14.63;;;;;;;3.41;48.17;94585.59;4992258;28;20342;-66
2023/04/07 02:14:03;;;;;;;16.77;15.07;;;;;;;3.39;47.94;94588.31;4991190;28;20231;-66
2023/04/07 02:16:31;;;;;;;16.20;14.23;;;;;;;3.43;47.84;94587.13;5008221;28;20307;-66
2023/04/07 02:18:58;;;;;;;18.87;15.03;;;;;;;3.47;47.92;94585.09;4991698;28;20345;-66
2023/04/07 02:21:25;;;;;;;16.80;15.17;;;;;;;3.44;48.31;94591.38;4989500;28;20223;-66
2023/04/07 02:23:51;;;;;;;16.43;14.60;;;;;;;3.37;48.60;94579.81;4991906;28;20191;-67
2023/04/07 02:26:16;;;;;;;17.57;14.83;;;;;;;3.27;48.99;94584.06;4991632;28;20191;-66
2023/04/07 02:28:42;;;;;;;17.03;15.23;;;;;;;3.27;48.30;94589.25;4990865;28;20326;-66
2023/04/07 02:31:07;;;;;;;16.37;14.67;;;;;;;3.21;48.76;94579.34;4991230;28;20231;-66
2023/04/07 02:33:33;;;;;;;16.50;14.50;;;;;;;3.25;48.80;94585.94;4991710;28;20310;-66
2023/04/07 02:35:58;;;;;;;16.27;14.57;;;;;;;3.36;48.60;94583.34;4990776;28;20230;-66
2023/04/07 02:38:24;;;;;;;16.47;14.20;;;;;;;3.43;48.80;94589.72;4992075;28;20180;-66
2023/04/07 02:40:50;;;;;;;17.67;14.37;;;;;;;3.35;49.34;94594.69;4990585;28;20231;-67
2023/04/07 02:43:16;;;;;;;17.00;15.30;;;;;;;3.41;49.41;94591.63;4990066;28;20223;-66
2023/04/07 02:45:42;;;;;;;17.60;15.73;;;;;;;3.43;49.03;94597.53;4988638;28;20246;-66
2023/04/07 02:48:07;;;;;;;17.07;15.37;;;;;;;3.45;48.96;94593.03;4989896;28;20223;-66
2023/04/07 02:50:33;;;;;;;17.47;15.73;;;;;;;3.01;50.38;94588.66;4991922;28;20188;-66
2023/04/07 02:52:58;;;;;;;16.93;14.50;;;;;;;3.18;50.00;94590.81;4991369;28;20619;-66
2023/04/07 02:55:24;;;;;;;16.97;14.43;;;;;;;3.28;49.92;94591.72;4988908;28;20220;-66
2023/04/07 02:57:49;;;;;;;16.33;14.63;;;;;;;3.38;49.78;94596.22;5000835;28;20291;-66
2023/04/07 03:00:15;;;;;;;16.37;14.13;;;;;;;3.51;49.56;94608.16;4988287;28;20224;-66
2023/04/07 03:02:40;;;;;;;17.60;15.63;;;;;;;3.50;49.01;94606.50;4990747;28;20219;-64
2023/04/07 03:05:06;;;;;;;15.57;14.00;;;;;;;3.45;49.02;94602.63;4990602;28;20278;-66
2023/04/07 03:07:31;;;;;;;15.20;13.70;;;;;;;3.49;49.09;94604.03;4990722;28;20235;-64
2023/04/07 03:09:57;;;;;;;16.00;14.40;;;;;;;3.61;48.58;94612.63;5008622;28;20355;-67
2023/04/07 03:12:22;;;;;;;16.60;14.03;;;;;;;3.56;48.76;94601.78;4989698;28;20322;-67
2023/04/07 03:14:48;;;;;;;16.87;14.20;;;;;;;3.60;48.86;94608.38;4990607;28;20199;-66
2023/04/07 03:17:14;;;;;;;15.60;14.03;;;;;;;3.60;48.68;94603.19;4990938;28;20188;-66
2023/04/07 03:19:39;;;;;;;15.43;13.93;;;;;;;3.62;48.47;94607.31;4989095;28;20228;-67
2023/04/07 03:22:05;;;;;;;16.73;14.17;;;;;;;3.64;48.38;94596.81;4995554;28;20227;-68
2023/04/07 03:24:30;;;;;;;14.30;12.90;;;;;;;3.64;47.35;94607.22;4989608;28;20235;-66
2023/04/07 03:26:56;;;;;;;14.50;13.10;;;;;;;3.58;47.10;94602.47;4988772;28;20191;-66
2023/04/07 03:29:21;;;;;;;12.23;11.03;;;;;;;3.42;45.12;94588.09;4991324;28;20189;-68
2023/04/07 03:31:47;;;;;;;9.70;8.77;;;;;;;3.51;42.68;94599.53;4989220;28;20294;-66
2023/04/07 03:34:13;;;;;;;9.33;7.73;;;;;;;3.68;42.54;94599.03;4990423;28;20219;-67
2023/04/07 03:36:38;;;;;;;7.50;6.80;;;;;;;3.58;41.41;94589.47;4989827;28;20222;-65
2023/04/07 03:39:04;;;;;;;7.80;7.00;;;;;;;3.63;41.07;94584.75;4989615;28;20223;-65
2023/04/07 03:41:29;;;;;;;7.27;5.80;;;;;;;3.58;40.63;94586.88;4974124;28;20198;-68
2023/04/07 03:43:55;;;;;;;8.13;6.70;;;;;;;3.60;40.49;94585.00;4989643;28;20310;-68
2023/04/07 03:46:21;;;;;;;7.40;6.70;;;;;;;3.70;40.59;94591.94;4989830;28;20232;-67
2023/04/07 03:48:50;;;;;;;7.80;7.00;;;;;;;3.71;40.20;94588.38;4985442;28;20242;-68
2023/04/07 03:51:16;;;;;;;8.27;6.73;;;;;;;3.70;40.03;94594.53;4988736;28;20322;-65
2023/04/07 03:53:41;;;;;;;8.07;7.10;;;;;;;3.63;40.45;94595.16;4982975;28;20389;-68
2023/04/07 03:56:07;;;;;;;7.17;6.47;;;;;;;3.48;40.60;94590.19;5005787;28;20216;-65
2023/04/07 03:58:32;;;;;;;9.37;6.30;;;;;;;3.68;40.21;94587.81;4989579;28;20219;-65
2023/04/07 04:00:58;;;;;;;6.90;6.20;;;;;;;3.73;40.37;94609.09;4989659;28;20226;-68
2023/04/07 04:03:23;;;;;;;8.00;6.70;;;;;;;3.50;40.29;94600.47;4988237;28;20386;-68
2023/04/07 04:05:49;;;;;;;7.63;6.73;;;;;;;3.62;40.67;94602.13;4989842;28;20242;-65
2023/04/07 04:08:14;;;;;;;7.30;6.60;;;;;;;3.75;40.39;94605.41;4989054;28;20191;-67
2023/04/07 04:10:40;;;;;;;9.10;6.60;;;;;;;3.88;39.91;94607.06;4989447;28;20253;-67
2023/04/07 04:13:06;;;;;;;7.07;6.37;;;;;;;3.84;40.23;94609.06;4989505;28;20231;-68
2023/04/07 04:15:32;;;;;;;8.27;6.73;;;;;;;3.88;39.74;94612.25;4988875;28;20314;-68
2023/04/07 04:17:57;;;;;;;8.63;7.30;;;;;;;3.91;40.18;94610.25;4993649;28;20314;-66
2023/04/07 04:20:23;;;;;;;11.43;8.47;;;;;;;4.01;40.85;94614.69;4968146;28;20199;-68
2023/04/07 04:22:48;;;;;;;15.37;13.33;;;;;;;3.97;44.23;94622.75;4989435;28;20238;-67
2023/04/07 04:25:16;;;;;;;18.10;13.73;;;;;;;3.82;45.43;94621.34;4984689;28;20238;-64
2023/04/07 04:27:41;;;;;;;17.97;14.50;;;;;;;3.83;45.60;94620.41;4987395;28;20494;-65
2023/04/07 04:30:07;;;;;;;18.90;14.93;;;;;;;3.90;46.21;94632.00;4989294;28;20229;-64
2023/04/07 04:32:33;;;;;;;16.93;15.23;;;;;;;3.87;46.73;94632.22;4973364;28;20215;-68
2023/04/07 04:34:58;;;;;;;17.77;15.97;;;;;;;3.92;47.09;94634.47;4989047;28;20227;-68
2023/04/07 04:37:24;;;;;;;18.30;15.03;;;;;;;3.61;47.47;94626.47;4988152;28;20238;-65
2023/04/07 04:39:50;;;;;;;18.63;15.70;;;;;;;3.72;47.07;94625.66;4989282;28;20231;-65
2023/04/07 04:42:15;;;;;;;17.50;15.73;;;;;;;3.75;47.26;94631.41;4988525;28;20223;-68
2023/04/07 04:44:41;;;;;;;17.27;15.47;;;;;;;3.85;47.26;94638.50;4989705;28;20195;-67
2023/04/07 04:47:06;;;;;;;18.03;15.87;;;;;;;3.82;47.26;94636.94;4988113;28;20199;-68
2023/04/07 04:49:32;;;;;;;20.90;15.33;;;;;;;3.76;47.80;94627.03;4988794;28;20289;-64
2023/04/07 04:51:57;;;;;;;16.53;14.50;;;;;;;3.73;47.94;94635.91;4988901;28;20231;-69
2023/04/07 04:54:22;;;;;;;17.40;15.00;;;;;;;3.82;47.59;94646.53;4987213;28;20294;-69
2023/04/07 04:56:48;;;;;;;17.63;15.77;;;;;;;3.24;48.85;94642.28;4987493;28;20188;-65
2023/04/07 04:59:13;;;;;;;18.43;16.57;;;;;;;3.64;48.29;94646.22;4988811;28;20188;-67
2023/04/07 05:01:39;;;;;;;18.27;16.37;;;;;;;3.78;47.54;94647.75;4987750;28;20227;-67
2023/04/07 05:04:05;;;;;;;17.80;14.50;;;;;;;3.88;47.23;94646.91;4986980;28;20251;-64
2023/04/07 05:06:30;;;;;;;19.60;14.23;;;;;;;3.97;47.00;94651.38;4987376;28;20292;-66
2023/04/07 05:08:56;;;;;;;16.83;14.10;;;;;;;4.02;46.70;94660.59;4992523;28;20290;-64
2023/04/07 05:11:21;;;;;;;16.20;13.73;;;;;;;4.02;46.37;94660.59;4993184;28;20208;-66
2023/04/07 05:13:47;;;;;;;18.80;15.30;;;;;;;3.75;47.60;94657.44;4989861;28;20220;-64
2023/04/07 05:16:12;;;;;;;17.03;14.07;;;;;;;3.88;46.66;94656.47;4992039;28;20223;-65
2023/04/07 05:18:38;;;;;;;16.63;13.40;;;;;;;3.95;46.20;94655.84;4990173;28;20219;-65
2023/04/07 05:21:03;;;;;;;16.43;12.83;;;;;;;3.60;47.40;94668.19;4991085;28;20223;-64
2023/04/07 05:23:28;;;;;;;17.43;13.73;;;;;;;3.61;47.38;94656.81;4974756;28;20294;-64
2023/04/07 05:25:54;;;;;;;14.50;12.80;;;;;;;3.92;46.68;94666.50;4990682;28;20231;-65
2023/04/07 05:28:20;;;;;;;15.47;13.03;;;;;;;4.07;46.28;94674.06;4990714;28;20282;-64
2023/04/07 05:30:45;;;;;;;15.37;12.67;;;;;;;4.09;46.13;94657.41;4992778;28;20223;-70
2023/04/07 05:33:10;;;;;;;19.43;12.60;;;;;;;4.33;45.78;94669.38;4985433;28;20231;-65
2023/04/07 05:35:36;;;;;;;17.90;12.80;;;;;;;4.47;45.19;94671.72;4991907;28;20218;-65
2023/04/07 05:38:02;;;;;;;15.73;13.17;;;;;;;4.47;44.84;94670.91;4991251;28;20234;-64
2023/04/07 05:40:29;;;;;;;14.23;12.80;;;;;;;4.61;44.46;94662.81;4992100;28;20226;-64
2023/04/07 05:42:55;;;;;;;13.93;12.57;;;;;;;4.76;44.13;94671.97;4989181;28;20346;-66
2023/04/07 05:45:20;;;;;;;14.47;12.83;;;;;;;4.61;44.56;94665.41;4983492;28;20239;-64
2023/04/07 05:47:48;;;;;;;15.60;13.60;;;;;;;4.83;43.93;94672.28;4991366;28;20203;-64
2023/04/07 05:50:15;;;;;;;17.67;13.80;;;;;;;4.94;43.74;94656.59;4991328;28;20322;-64
2023/04/07 05:52:40;;;;;;;17.60;14.10;;;;;;;4.99;44.26;94664.03;4991959;28;20257;-63
2023/04/07 05:55:06;;;;;;;17.23;13.80;;;;;;;5.02;43.95;94667.22;4990723;28;20255;-63
2023/04/07 05:57:32;;;;;;;17.93;13.97;;;;;;;4.98;44.45;94671.03;4990812;28;20254;-64
2023/04/07 05:59:57;;;;;;;17.23;15.00;;;;;;;4.96;44.36;94667.72;4991357;28;20230;-64
2023/04/07 06:02:23;;;;;;;18.07;14.83;;;;;;;5.14;43.96;94664.56;4991662;28;20271;-64
2023/04/07 06:04:48;;;;;;;15.20;13.47;;;;;;;5.09;44.02;94664.94;4990563;28;20330;-64
2023/04/07 06:07:14;;;;;;;19.97;13.67;;;;;;;5.13;44.15;94671.53;4989506;28;20254;-67
2023/04/07 06:09:41;;;;;;;17.10;13.90;;;;;;;5.11;44.33;94670.03;4988536;28;20227;-65
2023/04/07 06:12:08;;;;;;;17.87;14.33;;;;;;;5.12;44.51;94662.09;4992095;28;20265;-64
2023/04/07 06:14:33;;;;;;;18.17;14.03;;;;;;;5.38;43.65;94643.44;4978847;28;20255;-64
2023/04/07 06:16:59;;;;;;;16.37;12.90;;;;;;;5.42;43.19;94668.28;4989743;28;20231;-64
2023/04/07 06:19:26;;;;;;;19.13;12.90;;;;;;;5.64;42.59;94665.53;4989675;28;20239;-64
2023/04/07 06:21:52;;;;;;;15.13;12.90;;;;;;;5.58;42.76;94665.22;4989783;28;20223;-65
2023/04/07 06:24:17;;;;;;;16.00;12.33;;;;;;;5.39;43.40;94668.56;4989278;28;20241;-67
2023/04/07 06:26:43;;;;;;;15.30;12.50;;;;;;;5.61;42.93;94654.53;4989697;28;20226;-65
2023/04/07 06:29:09;;;;;;;13.60;11.70;;;;;;;5.82;41.93;94665.72;4988225;28;20199;-65
2023/04/07 06:31:34;;;;;;;16.00;12.57;;;;;;;5.88;41.82;94662.63;4987277;28;20227;-66
2023/04/07 06:34:00;;;;;;;15.47;12.73;;;;;;;5.80;41.45;94665.06;4973702;28;20282;-66
2023/04/07 06:36:26;;;;;;;17.17;11.77;;;;;;;5.72;41.57;94659.66;4990816;28;20231;-66
2023/04/07 06:38:52;;;;;;;17.30;11.80;;;;;;;5.67;41.81;94648.81;4989658;28;20198;-66
2023/04/07 06:41:17;;;;;;;12.97;11.27;;;;;;;5.80;41.66;94664.22;4985704;28;20211;-65
2023/04/07 06:43:45;;;;;;;19.80;12.93;;;;;;;5.87;41.90;94657.53;4988207;28;20224;-67
2023/04/07 06:46:11;;;;;;;12.83;11.50;;;;;;;5.64;41.72;94656.88;4989559;28;20293;-65
2023/04/07 06:48:36;;;;;;;12.60;11.30;;;;;;;5.87;41.37;94665.34;4986802;28;20643;-65
2023/04/07 06:51:02;;;;;;;14.40;11.47;;;;;;;5.86;40.44;94680.19;4989902;28;20223;-66
2023/04/07 06:53:27;;;;;;;14.40;11.23;;;;;;;5.86;40.87;94655.88;4994489;28;20593;-62
2023/04/07 06:56:07;;;;;;;12.17;9.90;;;;;;;5.92;39.94;94657.94;4991404;28;20219;-62
2023/04/07 06:58:33;;;;;;;12.30;10.67;;;;;;;6.04;39.90;94674.34;4989263;28;20265;-62
2023/04/07 07:00:59;;;;;;;16.63;11.80;;;;;;;6.13;40.34;94669.19;5000300;28;20254;-62
2023/04/07 07:03:26;;;;;;;14.03;12.00;;;;;;;6.08;41.15;94667.94;4948287;28;1180975;-64
2023/04/07 07:05:53;;;;;;;16.97;12.27;;;;;;;6.27;40.71;94669.75;4990725;28;20218;-65
2023/04/07 07:08:19;;;;;;;16.30;11.97;;;;;;;6.02;41.22;94663.25;4991528;28;20311;-63
2023/04/07 07:10:44;;;;;;;15.67;12.17;;;;;;;6.28;40.79;94668.78;4991442;28;20557;-66
2023/04/07 07:13:10;;;;;;;14.43;11.07;;;;;;;6.55;39.13;94682.06;4990078;28;20266;-65
2023/04/07 07:15:35;;;;;;;9.47;8.53;;;;;;;5.97;38.75;94674.88;4991920;28;20235;-67
2023/04/07 07:18:00;;;;;;;18.17;6.47;;;;;;;6.31;36.09;94673.78;4991602;28;20222;-62
2023/04/07 07:20:26;;;;;;;7.67;5.80;;;;;;;6.39;35.73;94673.91;4991894;28;20187;-66
2023/04/07 07:22:51;;;;;;;6.77;5.63;;;;;;;6.45;35.64;94677.78;4988531;28;20231;-64
2023/04/07 07:25:17;;;;;;;8.07;5.67;;;;;;;6.60;34.90;94666.81;4993890;28;20231;-65
2023/04/07 07:27:42;;;;;;;7.37;6.30;;;;;;;6.47;34.47;94674.06;4986205;28;20325;-65
2023/04/07 07:30:08;;;;;;;6.50;5.70;;;;;;;6.50;34.80;94689.47;4990209;28;20573;-65
2023/04/07 07:32:34;;;;;;;7.97;5.70;;;;;;;6.69;34.33;94680.81;4991108;28;20255;-65
2023/04/07 07:34:59;;;;;;;8.00;5.53;;;;;;;6.83;34.34;94685.63;4990199;28;20274;-65
2023/04/07 07:37:25;;;;;;;6.77;5.40;;;;;;;7.02;33.85;94690.03;4990507;28;20245;-64
2023/04/07 07:39:50;;;;;;;8.00;5.23;;;;;;;7.01;33.39;94693.63;4989658;28;20604;-65
2023/04/07 07:42:16;;;;;;;7.20;5.40;;;;;;;7.00;33.48;94680.69;4988917;28;20235;-64
2023/04/07 07:44:41;;;;;;;7.93;5.17;;;;;;;7.20;33.01;94684.94;4987906;28;20199;-63
2023/04/07 07:47:07;;;;;;;9.03;5.70;;;;;;;7.11;33.05;94693.63;4989757;28;20202;-62
2023/04/07 07:49:32;;;;;;;6.20;5.60;;;;;;;7.22;33.04;94680.41;4989184;28;20235;-65
2023/04/07 07:51:58;;;;;;;6.70;5.20;;;;;;;7.46;33.14;94686.97;4987245;28;20274;-64
2023/04/07 07:54:24;;;;;;;6.33;5.43;;;;;;;7.61;32.83;94687.34;4989948;28;20223;-64
2023/04/07 07:56:50;;;;;;;7.20;5.50;;;;;;;7.26;32.92;94694.03;4988214;28;20199;-65
2023/04/07 07:59:15;;;;;;;6.40;5.43;;;;;;;7.64;32.14;94705.38;4990826;28;20191;-65
2023/04/07 08:01:41;;;;;;;6.13;5.00;;;;;;;7.46;32.33;94682.56;4989839;28;20231;-64
2023/04/07 08:04:06;;;;;;;7.70;5.37;;;;;;;7.90;31.31;94685.47;4989651;28;20235;-65
2023/04/07 08:06:32;;;;;;;6.73;4.93;;;;;;;7.81;31.58;94688.94;4989515;28;20219;-66
2023/04/07 08:08:57;;;;;;;5.30;4.80;;;;;;;7.54;32.30;94697.56;4991194;28;20183;-65
2023/04/07 08:11:23;;;;;;;7.03;5.10;;;;;;;7.73;31.96;94692.28;4990310;28;20207;-65
2023/04/07 08:13:48;;;;;;;6.77;4.87;;;;;;;7.50;32.03;94694.38;4988334;28;20219;-65
2023/04/07 08:16:14;;;;;;;6.27;4.77;;;;;;;7.71;31.77;94690.78;4989791;28;20227;-64
2023/04/07 08:18:40;;;;;;;5.37;4.37;;;;;;;7.95;31.47;94691.09;4989591;28;20238;-64
2023/04/07 08:21:05;;;;;;;7.43;5.07;;;;;;;7.93;31.62;94687.78;4989750;28;20242;-63
2023/04/07 08:23:31;;;;;;;5.53;4.60;;;;;;;8.12;31.51;94691.31;4990310;28;20206;-64
2023/04/07 08:25:57;;;;;;;6.37;4.60;;;;;;;8.12;31.20;94683.44;4990444;28;20220;-64
2023/04/07 08:28:25;;;;;;;5.90;4.93;;;;;;;8.48;30.89;94691.44;4988963;28;20219;-67
2023/04/07 08:30:51;;;;;;;5.40;4.30;;;;;;;8.52;30.38;94685.75;4991026;28;20235;-67
2023/04/07 08:33:16;;;;;;;5.20;4.70;;;;;;;8.79;30.57;94697.16;4988180;28;21264;-65
2023/04/07 08:35:42;;;;;;;6.43;4.93;;;;;;;8.64;30.41;94698.66;4989270;28;20183;-66
2023/04/07 08:38:08;;;;;;;6.27;4.60;;;;;;;8.65;30.72;94698.50;4986844;28;20254;-65
2023/04/07 08:40:34;;;;;;;6.70;5.10;;;;;;;8.49;30.56;94687.84;4989154;28;20251;-63
2023/04/07 08:43:02;;;;;;;5.17;4.67;;;;;;;8.16;31.74;94676.97;4988049;28;20215;-64
2023/04/07 08:45:30;;;;;;;6.60;4.97;;;;;;;8.26;31.46;94695.22;4986286;28;20306;-65
2023/04/07 08:47:58;;;;;;;5.10;4.60;;;;;;;8.01;31.16;94697.56;4988392;28;20707;-65
2023/04/07 08:50:27;;;;;;;5.27;4.73;;;;;;;8.09;31.29;94689.78;5005642;28;20210;-65
2023/04/07 08:52:59;;;;;;;6.07;5.43;;;;;;;8.21;31.39;94703.53;4988421;28;20231;-64
2023/04/07 08:55:25;;;;;;;5.70;4.90;;;;;;;8.06;31.79;94690.09;4989294;28;20568;-65
2023/04/07 08:57:51;;;;;;;7.43;5.57;;;;;;;7.97;31.73;94692.78;4988397;28;20258;-65
2023/04/07 09:00:17;;;;;;;5.87;4.60;;;;;;;7.99;31.27;94696.84;4988503;28;20240;-65
2023/04/07 09:02:44;;;;;;;4.60;4.10;;;;;;;7.97;31.65;94690.97;4989840;28;20183;-64
2023/04/07 09:05:11;;;;;;;5.63;4.40;;;;;;;8.03;30.80;94686.94;4989614;28;20246;-65
2023/04/07 09:07:39;;;;;;;5.00;4.17;;;;;;;8.18;31.01;94683.72;4989545;28;20223;-67
2023/04/07 09:10:05;;;;;;;7.57;5.50;;;;;;;8.29;30.86;94685.31;4988597;28;20277;-65
2023/04/07 09:12:32;;;;;;;5.13;4.50;;;;;;;8.42;30.51;94684.16;4989309;28;20227;-64
2023/04/07 09:14:57;;;;;;;4.73;4.33;;;;;;;8.80;29.52;94698.81;4989882;28;20223;-62
2023/04/07 09:17:28;;;;;;;5.97;4.87;;;;;;;8.89;29.79;94682.19;4989831;28;20230;-63
2023/04/07 09:19:58;;;;;;;7.10;4.80;;;;;;;9.19;29.24;94677.53;4989433;28;20310;-62
2023/04/07 09:22:45;;;;;;;5.73;4.80;;;;;;;9.28;30.07;94693.19;4989022;28;20230;-62
2023/04/07 09:25:21;;;;;;;5.93;4.33;;;;;;;9.30;29.47;94673.84;4991379;28;20231;-63
2023/04/07 09:27:58;;;;;;;5.97;5.30;;;;;;;9.63;29.11;94693.28;4986960;28;20310;-63
2023/04/07 09:30:25;;;;;;;6.50;5.10;;;;;;;9.48;29.58;94699.06;4987459;28;20269;-64
2023/04/07 09:32:50;;;;;;;5.57;4.90;;;;;;;9.31;29.04;94688.63;4988281;28;20308;-63
2023/04/07 09:35:16;;;;;;;6.30;5.00;;;;;;;9.15;29.54;94691.94;4989803;28;20180;-63
2023/04/07 09:37:42;;;;;;;6.47;4.33;;;;;;;8.88;29.82;94700.72;4989034;28;20310;-63
2023/04/07 09:40:08;;;;;;;6.70;4.77;;;;;;;8.82;30.33;94695.09;4987307;28;20247;-63
2023/04/07 09:42:36;;;;;;;9.60;5.20;;;;;;;9.03;30.02;94691.31;4991495;28;20229;-63
2023/04/07 09:45:01;;;;;;;8.93;5.27;;;;;;;9.18;29.71;94676.72;4985333;28;20228;-63
2023/04/07 09:47:29;;;;;;;5.53;5.03;;;;;;;9.47;29.52;94692.19;4987416;28;20267;-63
2023/04/07 09:49:55;;;;;;;6.70;5.47;;;;;;;9.38;29.96;94694.91;4970103;28;20250;-64
2023/04/07 09:52:51;;;;;;;6.10;5.50;;;;;;;8.69;30.91;94707.72;4990175;28;20246;-63
2023/04/07 09:55:21;;;;;;;6.23;5.63;;;;;;;8.94;30.31;94700.91;4990925;28;20236;-63
2023/04/07 09:57:51;;;;;;;6.17;5.57;;;;;;;9.02;30.84;94708.88;4985564;28;20234;-64
2023/04/07 10:00:17;;;;;;;5.93;5.40;;;;;;;9.03;30.66;94707.06;4989783;28;20223;-63
2023/04/07 10:02:42;;;;;;;7.13;5.57;;;;;;;9.11;31.18;94696.63;4989398;28;20294;-63
2023/04/07 10:05:09;;;;;;;6.13;5.53;;;;;;;9.42;30.52;94702.31;4991942;28;20231;-64
2023/04/07 10:07:35;;;;;;;10.23;5.57;;;;;;;9.71;30.29;94706.47;4992056;28;20223;-64
2023/04/07 10:10:02;;;;;;;5.90;5.40;;;;;;;10.03;29.49;94702.41;4992053;28;20231;-64
2023/04/07 10:12:30;;;;;;;7.53;6.20;;;;;;;10.12;28.61;94702.25;4991093;28;20223;-64
2023/04/07 10:14:59;;;;;;;7.57;5.23;;;;;;;10.13;28.69;94690.78;4992098;28;20191;-64
2023/04/07 10:17:25;;;;;;;6.17;5.30;;;;;;;10.30;28.88;94696.16;4991372;28;20219;-64
2023/04/07 10:19:51;;;;;;;7.67;5.37;;;;;;;10.31;28.65;94695.16;4991246;28;20227;-65
2023/04/07 10:22:18;;;;;;;6.17;5.03;;;;;;;10.19;29.07;94710.38;4993916;28;20223;-64
2023/04/07 10:24:52;;;;;;;6.87;5.23;;;;;;;10.18;29.07;94700.00;4991432;28;20231;-65
2023/04/07 10:27:26;;;;;;;6.70;5.23;;;;;;;10.12;28.58;94699.63;4991092;28;20234;-64
2023/04/07 10:29:52;;;;;;;6.57;5.43;;;;;;;9.72;29.81;94701.03;4990867;28;20224;-62
2023/04/07 10:32:18;;;;;;;6.67;6.07;;;;;;;9.88;29.77;94710.84;4991758;28;20203;-63
2023/04/07 10:34:47;;;;;;;6.03;5.50;;;;;;;9.79;29.51;94703.91;4990839;28;20314;-64
2023/04/07 10:37:16;;;;;;;7.60;5.80;;;;;;;9.91;29.99;94704.44;4991544;28;20733;-62
2023/04/07 10:39:42;;;;;;;6.00;5.40;;;;;;;9.82;30.50;94710.66;4989828;28;20242;-64
2023/04/07 10:42:36;;;;;;;9.67;5.80;;;;;;;9.94;30.02;94710.25;4993665;28;20231;-64
2023/04/07 10:45:03;;;;;;;6.97;5.60;;;;;;;9.86;29.78;94710.19;5007037;28;20223;-64
2023/04/07 10:47:29;;;;;;;6.97;5.73;;;;;;;10.01;29.86;94709.59;4988808;28;20243;-66
2023/04/07 10:50:14;;;;;;;6.30;5.70;;;;;;;9.86;29.69;94712.81;4992046;28;20252;-63
2023/04/07 10:52:40;;;;;;;5.97;5.47;;;;;;;9.96;30.04;94707.44;4989412;28;20227;-63
2023/04/07 10:55:29;;;;;;;7.97;6.70;;;;;;;9.98;30.48;94721.25;4990608;28;20223;-62
2023/04/07 10:58:33;;;;;;;7.53;6.83;;;;;;;10.19;31.19;94713.00;4991050;28;20228;-65
2023/04/07 11:00:59;;;;;;;7.10;6.20;;;;;;;10.13;31.21;94719.69;4991382;28;20655;-63
2023/04/07 11:03:25;;;;;;;7.73;6.10;;;;;;;9.94;31.00;94728.63;5005899;28;20240;-63
2023/04/07 11:05:50;;;;;;;6.83;6.20;;;;;;;9.79;31.72;94717.03;4990373;28;20308;-64
2023/04/07 11:08:35;;;;;;;6.83;6.17;;;;;;;9.64;31.71;94715.94;4991512;28;20362;-64
2023/04/07 11:11:07;;;;;;;6.40;5.80;;;;;;;9.99;31.20;94722.88;4983074;28;20241;-64
2023/04/07 11:13:42;;;;;;;7.10;5.73;;;;;;;10.19;30.90;94730.56;4989802;28;20323;-64
2023/04/07 11:16:08;;;;;;;6.53;5.90;;;;;;;10.12;31.22;94728.53;4990758;28;20285;-66
2023/04/07 11:18:35;;;;;;;9.17;6.67;;;;;;;10.18;31.15;94726.28;4990481;28;20278;-64
2023/04/07 11:21:02;;;;;;;7.37;6.23;;;;;;;10.28;31.43;94721.75;4989696;28;20269;-63
2023/04/07 11:23:28;;;;;;;7.57;6.77;;;;;;;10.22;31.50;94722.38;4991063;28;20207;-63
2023/04/07 11:26:03;;;;;;;7.70;6.30;;;;;;;9.97;31.90;94729.25;4989551;28;20228;-66
2023/04/07 11:28:29;;;;;;;7.47;6.20;;;;;;;10.23;31.80;94718.75;4971020;28;20285;-65
2023/04/07 11:30:57;;;;;;;6.63;5.93;;;;;;;10.20;31.69;94729.56;4989142;28;20258;-64
2023/04/07 11:33:30;;;;;;;8.27;6.30;;;;;;;10.46;31.69;94740.91;4990016;28;20289;-65
2023/04/07 11:36:01;;;;;;;6.60;6.00;;;;;;;10.56;31.03;94738.97;4994756;28;20202;-64